New Rockford, North Dakota
Current Conditions -  °F | °C
As of 8:15 PM on Friday 24 Oct 2014 (Local Time) from K46D Reporting Station
Clear Clear  
Wind Chill: 43°   Ceiling: Unl
Heat Index: 48°   Visibility: 10mi
Dew Point: 32°   Wind: 13mph
Humidity: 54%   Direction: 280°W
Pressure: 29.93"   Gusts: NA
Location:  47.68°N, 99.14°W
Report Text: K46D 250115Z AUTO 28011KT 10SM CLR 09/00 A2993 RMK AO2
Loading
Personal Weather Stations






























Interactive Weather Map
Tropical Storm Tracking
New forecast layout! Learn more

10-Day Weather Forecast

Advertisements
Track Severe Weather on mobile